sensor_id;sensor_type;location;lat;lon;timestamp;P1;durP1;ratioP1;P2;durP2;ratioP2
11531;SDS011;5822;51.000;5.874;2023-12-07T00:01:25;23.27;;;21.88;;
11531;SDS011;5822;51.000;5.874;2023-12-07T00:03:51;24.63;;;23.13;;
11531;SDS011;5822;51.000;5.874;2023-12-07T00:06:16;23.83;;;22.33;;
11531;SDS011;5822;51.000;5.874;2023-12-07T00:08:42;24.42;;;22.92;;
11531;SDS011;5822;51.000;5.874;2023-12-07T00:11:08;24.05;;;22.65;;
11531;SDS011;5822;51.000;5.874;2023-12-07T00:13:33;24.30;;;22.90;;
11531;SDS011;5822;51.000;5.874;2023-12-07T00:15:59;23.48;;;22.08;;
11531;SDS011;5822;51.000;5.874;2023-12-07T00:18:24;23.92;;;22.50;;
11531;SDS011;5822;51.000;5.874;2023-12-07T00:20:50;24.10;;;22.60;;
11531;SDS011;5822;51.000;5.874;2023-12-07T00:23:16;23.60;;;22.20;;
11531;SDS011;5822;51.000;5.874;2023-12-07T00:25:41;24.50;;;23.00;;
11531;SDS011;5822;51.000;5.874;2023-12-07T00:28:07;25.58;;;24.00;;
11531;SDS011;5822;51.000;5.874;2023-12-07T00:30:32;25.27;;;23.77;;
11531;SDS011;5822;51.000;5.874;2023-12-07T00:32:58;24.70;;;23.20;;
11531;SDS011;5822;51.000;5.874;2023-12-07T00:35:25;24.70;;;23.20;;
11531;SDS011;5822;51.000;5.874;2023-12-07T00:37:53;24.67;;;23.17;;
11531;SDS011;5822;51.000;5.874;2023-12-07T00:40:23;24.90;;;23.38;;
11531;SDS011;5822;51.000;5.874;2023-12-07T00:42:49;24.20;;;22.70;;
11531;SDS011;5822;51.000;5.874;2023-12-07T00:45:14;25.37;;;23.77;;
11531;SDS011;5822;51.000;5.874;2023-12-07T00:47:40;25.97;;;24.27;;
11531;SDS011;5822;51.000;5.874;2023-12-07T00:50:07;25.73;;;24.13;;
11531;SDS011;5822;51.000;5.874;2023-12-07T00:52:33;26.27;;;24.58;;
11531;SDS011;5822;51.000;5.874;2023-12-07T00:54:58;26.30;;;24.60;;
11531;SDS011;5822;51.000;5.874;2023-12-07T00:57:24;26.48;;;24.77;;
11531;SDS011;5822;51.000;5.874;2023-12-07T00:59:50;26.73;;;24.92;;
11531;SDS011;5822;51.000;5.874;2023-12-07T01:02:15;27.40;;;25.60;;
11531;SDS011;5822;51.000;5.874;2023-12-07T01:04:41;26.83;;;25.13;;
11531;SDS011;5822;51.000;5.874;2023-12-07T01:07:07;26.67;;;24.97;;
11531;SDS011;5822;51.000;5.874;2023-12-07T01:09:33;26.60;;;24.90;;
11531;SDS011;5822;51.000;5.874;2023-12-07T01:11:58;27.15;;;25.38;;
11531;SDS011;5822;51.000;5.874;2023-12-07T01:14:24;27.10;;;25.40;;
11531;SDS011;5822;51.000;5.874;2023-12-07T01:16:50;26.90;;;25.10;;
11531;SDS011;5822;51.000;5.874;2023-12-07T01:19:15;28.25;;;26.35;;
11531;SDS011;5822;51.000;5.874;2023-12-07T01:21:41;28.93;;;27.03;;
11531;SDS011;5822;51.000;5.874;2023-12-07T01:24:07;29.70;;;27.70;;
11531;SDS011;5822;51.000;5.874;2023-12-07T01:26:33;30.50;;;28.42;;
11531;SDS011;5822;51.000;5.874;2023-12-07T01:28:59;31.83;;;29.63;;
11531;SDS011;5822;51.000;5.874;2023-12-07T01:31:24;33.13;;;30.73;;
11531;SDS011;5822;51.000;5.874;2023-12-07T01:33:50;34.27;;;31.77;;
11531;SDS011;5822;51.000;5.874;2023-12-07T01:36:16;35.77;;;33.17;;
11531;SDS011;5822;51.000;5.874;2023-12-07T01:38:42;36.90;;;34.10;;
11531;SDS011;5822;51.000;5.874;2023-12-07T01:41:08;34.33;;;31.85;;
11531;SDS011;5822;51.000;5.874;2023-12-07T01:43:34;34.15;;;31.65;;
11531;SDS011;5822;51.000;5.874;2023-12-07T01:46:00;33.20;;;30.70;;
11531;SDS011;5822;51.000;5.874;2023-12-07T01:48:26;32.93;;;30.53;;
11531;SDS011;5822;51.000;5.874;2023-12-07T01:50:53;33.90;;;31.38;;
11531;SDS011;5822;51.000;5.874;2023-12-07T01:53:21;33.55;;;31.05;;
11531;SDS011;5822;51.000;5.874;2023-12-07T01:55:48;32.60;;;30.23;;
11531;SDS011;5822;51.000;5.874;2023-12-07T01:58:14;31.75;;;29.45;;
11531;SDS011;5822;51.000;5.874;2023-12-07T02:00:42;31.25;;;28.95;;
11531;SDS011;5822;51.000;5.874;2023-12-07T02:03:07;31.98;;;29.58;;
11531;SDS011;5822;51.000;5.874;2023-12-07T02:05:33;32.13;;;29.83;;
11531;SDS011;5822;51.000;5.874;2023-12-07T02:08:01;32.10;;;29.70;;
11531;SDS011;5822;51.000;5.874;2023-12-07T02:10:27;32.83;;;30.42;;
11531;SDS011;5822;51.000;5.874;2023-12-07T02:12:53;35.20;;;32.50;;
11531;SDS011;5822;51.000;5.874;2023-12-07T02:15:19;35.63;;;32.92;;
11531;SDS011;5822;51.000;5.874;2023-12-07T02:20:28;34.07;;;31.47;;
11531;SDS011;5822;51.000;5.874;2023-12-07T02:23:16;32.85;;;30.45;;
11531;SDS011;5822;51.000;5.874;2023-12-07T02:25:48;33.25;;;30.75;;
11531;SDS011;5822;51.000;5.874;2023-12-07T02:28:19;33.40;;;30.98;;
11531;SDS011;5822;51.000;5.874;2023-12-07T02:30:45;32.88;;;30.48;;
11531;SDS011;5822;51.000;5.874;2023-12-07T02:33:11;33.97;;;31.48;;
11531;SDS011;5822;51.000;5.874;2023-12-07T02:35:37;33.03;;;30.63;;
11531;SDS011;5822;51.000;5.874;2023-12-07T02:38:04;33.25;;;30.85;;
11531;SDS011;5822;51.000;5.874;2023-12-07T02:40:32;32.05;;;29.75;;
11531;SDS011;5822;51.000;5.874;2023-12-07T02:42:59;31.85;;;29.55;;
11531;SDS011;5822;51.000;5.874;2023-12-07T02:45:25;32.60;;;30.30;;
11531;SDS011;5822;51.000;5.874;2023-12-07T02:47:51;31.70;;;29.42;;
11531;SDS011;5822;51.000;5.874;2023-12-07T02:50:17;31.75;;;29.55;;
11531;SDS011;5822;51.000;5.874;2023-12-07T02:52:43;30.38;;;28.27;;
11531;SDS011;5822;51.000;5.874;2023-12-07T02:55:09;31.43;;;29.23;;
11531;SDS011;5822;51.000;5.874;2023-12-07T02:57:35;30.42;;;28.35;;
11531;SDS011;5822;51.000;5.874;2023-12-07T03:00:01;30.92;;;28.83;;
11531;SDS011;5822;51.000;5.874;2023-12-07T03:02:31;30.80;;;28.70;;
11531;SDS011;5822;51.000;5.874;2023-12-07T03:05:00;31.60;;;29.40;;
11531;SDS011;5822;51.000;5.874;2023-12-07T03:07:26;31.63;;;29.42;;
11531;SDS011;5822;51.000;5.874;2023-12-07T03:09:52;32.13;;;29.80;;
11531;SDS011;5822;51.000;5.874;2023-12-07T03:12:17;31.48;;;29.27;;
11531;SDS011;5822;51.000;5.874;2023-12-07T03:14:43;31.35;;;29.15;;
11531;SDS011;5822;51.000;5.874;2023-12-07T03:17:08;32.22;;;29.98;;
11531;SDS011;5822;51.000;5.874;2023-12-07T03:19:37;34.13;;;31.67;;
11531;SDS011;5822;51.000;5.874;2023-12-07T03:22:03;32.90;;;30.60;;
11531;SDS011;5822;51.000;5.874;2023-12-07T03:24:31;31.77;;;29.58;;
11531;SDS011;5822;51.000;5.874;2023-12-07T03:26:57;32.13;;;29.83;;
11531;SDS011;5822;51.000;5.874;2023-12-07T03:29:23;32.47;;;30.27;;
11531;SDS011;5822;51.000;5.874;2023-12-07T03:31:49;31.57;;;29.47;;
11531;SDS011;5822;51.000;5.874;2023-12-07T03:34:14;30.57;;;28.50;;
11531;SDS011;5822;51.000;5.874;2023-12-07T03:36:41;31.00;;;28.90;;
11531;SDS011;5822;51.000;5.874;2023-12-07T03:39:08;31.13;;;29.02;;
11531;SDS011;5822;51.000;5.874;2023-12-07T03:41:34;30.77;;;28.67;;
11531;SDS011;5822;51.000;5.874;2023-12-07T03:44:00;31.17;;;29.08;;
11531;SDS011;5822;51.000;5.874;2023-12-07T03:46:25;30.73;;;28.63;;
11531;SDS011;5822;51.000;5.874;2023-12-07T03:48:51;31.08;;;28.92;;
11531;SDS011;5822;51.000;5.874;2023-12-07T03:51:17;31.05;;;28.95;;
11531;SDS011;5822;51.000;5.874;2023-12-07T03:53:42;31.35;;;29.23;;
11531;SDS011;5822;51.000;5.874;2023-12-07T03:56:08;29.75;;;27.75;;
11531;SDS011;5822;51.000;5.874;2023-12-07T03:58:34;28.90;;;27.00;;
11531;SDS011;5822;51.000;5.874;2023-12-07T04:00:59;29.65;;;27.65;;
11531;SDS011;5822;51.000;5.874;2023-12-07T04:03:25;28.48;;;26.58;;
11531;SDS011;5822;51.000;5.874;2023-12-07T04:05:50;28.27;;;26.38;;
11531;SDS011;5822;51.000;5.874;2023-12-07T04:08:16;30.88;;;28.77;;
11531;SDS011;5822;51.000;5.874;2023-12-07T04:10:42;29.63;;;27.63;;
11531;SDS011;5822;51.000;5.874;2023-12-07T04:13:08;31.27;;;29.07;;
11531;SDS011;5822;51.000;5.874;2023-12-07T04:15:33;29.63;;;27.63;;
11531;SDS011;5822;51.000;5.874;2023-12-07T04:17:59;29.70;;;27.70;;
11531;SDS011;5822;51.000;5.874;2023-12-07T04:20:25;29.70;;;27.70;;
11531;SDS011;5822;51.000;5.874;2023-12-07T04:22:50;28.90;;;26.97;;
11531;SDS011;5822;51.000;5.874;2023-12-07T04:25:17;29.23;;;27.23;;
11531;SDS011;5822;51.000;5.874;2023-12-07T04:27:42;28.57;;;26.67;;
11531;SDS011;5822;51.000;5.874;2023-12-07T04:30:08;27.13;;;25.33;;
11531;SDS011;5822;51.000;5.874;2023-12-07T04:32:34;29.08;;;27.08;;
11531;SDS011;5822;51.000;5.874;2023-12-07T04:35:00;29.23;;;27.23;;
11531;SDS011;5822;51.000;5.874;2023-12-07T04:37:25;28.98;;;27.08;;
11531;SDS011;5822;51.000;5.874;2023-12-07T04:39:51;27.77;;;25.88;;
11531;SDS011;5822;51.000;5.874;2023-12-07T04:42:16;27.30;;;25.50;;
11531;SDS011;5822;51.000;5.874;2023-12-07T04:44:42;28.67;;;26.67;;
11531;SDS011;5822;51.000;5.874;2023-12-07T04:47:08;27.98;;;26.08;;
11531;SDS011;5822;51.000;5.874;2023-12-07T04:49:33;28.33;;;26.42;;
11531;SDS011;5822;51.000;5.874;2023-12-07T04:51:59;29.07;;;27.07;;
11531;SDS011;5822;51.000;5.874;2023-12-07T04:54:24;28.58;;;26.63;;
11531;SDS011;5822;51.000;5.874;2023-12-07T04:56:52;27.83;;;25.92;;
11531;SDS011;5822;51.000;5.874;2023-12-07T04:59:18;28.27;;;26.38;;
11531;SDS011;5822;51.000;5.874;2023-12-07T05:01:43;27.80;;;25.90;;
11531;SDS011;5822;51.000;5.874;2023-12-07T05:04:09;27.13;;;25.33;;
11531;SDS011;5822;51.000;5.874;2023-12-07T05:06:35;28.03;;;26.13;;
11531;SDS011;5822;51.000;5.874;2023-12-07T05:09:00;29.10;;;27.10;;
11531;SDS011;5822;51.000;5.874;2023-12-07T05:11:26;29.70;;;27.70;;
11531;SDS011;5822;51.000;5.874;2023-12-07T05:13:52;28.40;;;26.60;;
11531;SDS011;5822;51.000;5.874;2023-12-07T05:16:17;27.53;;;25.70;;
11531;SDS011;5822;51.000;5.874;2023-12-07T05:18:45;29.50;;;27.50;;
11531;SDS011;5822;51.000;5.874;2023-12-07T05:21:11;28.73;;;26.83;;
11531;SDS011;5822;51.000;5.874;2023-12-07T05:23:36;30.08;;;28.08;;
11531;SDS011;5822;51.000;5.874;2023-12-07T05:26:02;28.10;;;26.30;;
11531;SDS011;5822;51.000;5.874;2023-12-07T05:28:28;28.95;;;27.05;;
11531;SDS011;5822;51.000;5.874;2023-12-07T05:30:53;28.85;;;26.95;;
11531;SDS011;5822;51.000;5.874;2023-12-07T05:33:22;28.23;;;26.42;;
11531;SDS011;5822;51.000;5.874;2023-12-07T05:35:47;27.27;;;25.48;;
11531;SDS011;5822;51.000;5.874;2023-12-07T05:38:13;26.58;;;24.88;;
11531;SDS011;5822;51.000;5.874;2023-12-07T05:40:39;26.88;;;25.08;;
11531;SDS011;5822;51.000;5.874;2023-12-07T05:43:04;27.63;;;25.83;;
11531;SDS011;5822;51.000;5.874;2023-12-07T05:45:30;29.50;;;27.50;;
11531;SDS011;5822;51.000;5.874;2023-12-07T05:47:56;27.67;;;25.88;;
11531;SDS011;5822;51.000;5.874;2023-12-07T05:50:22;26.48;;;24.77;;
11531;SDS011;5822;51.000;5.874;2023-12-07T05:52:47;26.43;;;24.73;;
11531;SDS011;5822;51.000;5.874;2023-12-07T05:55:13;26.30;;;24.70;;
11531;SDS011;5822;51.000;5.874;2023-12-07T05:57:39;26.90;;;25.20;;
11531;SDS011;5822;51.000;5.874;2023-12-07T06:00:05;27.02;;;25.33;;
11531;SDS011;5822;51.000;5.874;2023-12-07T06:02:35;28.08;;;26.17;;
11531;SDS011;5822;51.000;5.874;2023-12-07T06:05:04;27.67;;;25.87;;
11531;SDS011;5822;51.000;5.874;2023-12-07T06:07:30;27.95;;;26.15;;
11531;SDS011;5822;51.000;5.874;2023-12-07T06:09:56;28.25;;;26.45;;
11531;SDS011;5822;51.000;5.874;2023-12-07T06:12:22;27.88;;;26.08;;
11531;SDS011;5822;51.000;5.874;2023-12-07T06:14:48;27.58;;;25.77;;
11531;SDS011;5822;51.000;5.874;2023-12-07T06:17:14;27.85;;;26.05;;
11531;SDS011;5822;51.000;5.874;2023-12-07T06:19:39;28.10;;;26.30;;
11531;SDS011;5822;51.000;5.874;2023-12-07T06:22:05;28.10;;;26.30;;
11531;SDS011;5822;51.000;5.874;2023-12-07T06:24:31;27.08;;;25.38;;
11531;SDS011;5822;51.000;5.874;2023-12-07T06:26:57;27.17;;;25.48;;
11531;SDS011;5822;51.000;5.874;2023-12-07T06:29:23;26.88;;;25.17;;
11531;SDS011;5822;51.000;5.874;2023-12-07T06:31:49;28.03;;;26.23;;
11531;SDS011;5822;51.000;5.874;2023-12-07T06:34:14;26.70;;;25.00;;
11531;SDS011;5822;51.000;5.874;2023-12-07T06:36:40;26.27;;;24.63;;
11531;SDS011;5822;51.000;5.874;2023-12-07T06:39:05;27.07;;;25.30;;
11531;SDS011;5822;51.000;5.874;2023-12-07T06:41:31;27.40;;;25.60;;
11531;SDS011;5822;51.000;5.874;2023-12-07T06:43:58;27.50;;;25.70;;
11531;SDS011;5822;51.000;5.874;2023-12-07T06:46:24;27.83;;;26.03;;
11531;SDS011;5822;51.000;5.874;2023-12-07T06:48:50;27.63;;;25.83;;
11531;SDS011;5822;51.000;5.874;2023-12-07T06:51:16;27.63;;;25.83;;
11531;SDS011;5822;51.000;5.874;2023-12-07T06:53:41;27.73;;;25.92;;
11531;SDS011;5822;51.000;5.874;2023-12-07T06:56:07;28.83;;;26.92;;
11531;SDS011;5822;51.000;5.874;2023-12-07T06:58:33;27.37;;;25.67;;
11531;SDS011;5822;51.000;5.874;2023-12-07T07:00:59;27.75;;;25.98;;
11531;SDS011;5822;51.000;5.874;2023-12-07T07:03:25;27.23;;;25.52;;
11531;SDS011;5822;51.000;5.874;2023-12-07T07:05:52;27.33;;;25.63;;
11531;SDS011;5822;51.000;5.874;2023-12-07T07:08:19;27.83;;;26.13;;
11531;SDS011;5822;51.000;5.874;2023-12-07T07:10:44;28.50;;;26.70;;
11531;SDS011;5822;51.000;5.874;2023-12-07T07:13:11;29.48;;;27.67;;
11531;SDS011;5822;51.000;5.874;2023-12-07T07:15:41;30.60;;;28.80;;
11531;SDS011;5822;51.000;5.874;2023-12-07T07:18:07;35.88;;;33.88;;
11531;SDS011;5822;51.000;5.874;2023-12-07T07:20:33;33.63;;;31.80;;
11531;SDS011;5822;51.000;5.874;2023-12-07T07:22:59;34.70;;;32.80;;
11531;SDS011;5822;51.000;5.874;2023-12-07T07:25:24;34.80;;;32.90;;
11531;SDS011;5822;51.000;5.874;2023-12-07T07:27:50;35.47;;;33.47;;
11531;SDS011;5822;51.000;5.874;2023-12-07T07:30:17;32.90;;;30.90;;
11531;SDS011;5822;51.000;5.874;2023-12-07T07:32:42;33.17;;;31.17;;
11531;SDS011;5822;51.000;5.874;2023-12-07T07:35:08;30.77;;;28.98;;
11531;SDS011;5822;51.000;5.874;2023-12-07T07:37:36;30.10;;;28.30;;
11531;SDS011;5822;51.000;5.874;2023-12-07T07:40:03;31.13;;;29.23;;
11531;SDS011;5822;51.000;5.874;2023-12-07T07:42:31;32.90;;;30.90;;
11531;SDS011;5822;51.000;5.874;2023-12-07T07:44:58;35.65;;;33.55;;
11531;SDS011;5822;51.000;5.874;2023-12-07T07:47:23;35.30;;;33.25;;
11531;SDS011;5822;51.000;5.874;2023-12-07T07:49:49;33.77;;;31.77;;
11531;SDS011;5822;51.000;5.874;2023-12-07T07:52:15;33.10;;;31.20;;
11531;SDS011;5822;51.000;5.874;2023-12-07T07:54:40;33.20;;;31.30;;
11531;SDS011;5822;51.000;5.874;2023-12-07T07:57:06;32.53;;;30.57;;
11531;SDS011;5822;51.000;5.874;2023-12-07T07:59:31;34.37;;;32.37;;
11531;SDS011;5822;51.000;5.874;2023-12-07T08:01:57;33.17;;;31.17;;
11531;SDS011;5822;51.000;5.874;2023-12-07T08:04:22;31.20;;;29.30;;
11531;SDS011;5822;51.000;5.874;2023-12-07T08:06:48;29.92;;;28.13;;
11531;SDS011;5822;51.000;5.874;2023-12-07T08:09:14;33.05;;;31.05;;
11531;SDS011;5822;51.000;5.874;2023-12-07T08:11:39;31.30;;;29.40;;
11531;SDS011;5822;51.000;5.874;2023-12-07T08:14:06;31.53;;;29.63;;
11531;SDS011;5822;51.000;5.874;2023-12-07T08:16:31;33.60;;;31.60;;
11531;SDS011;5822;51.000;5.874;2023-12-07T08:18:57;31.17;;;29.27;;
11531;SDS011;5822;51.000;5.874;2023-12-07T08:21:23;32.75;;;30.75;;
11531;SDS011;5822;51.000;5.874;2023-12-07T08:23:50;35.13;;;32.97;;
11531;SDS011;5822;51.000;5.874;2023-12-07T08:26:16;34.30;;;32.20;;
11531;SDS011;5822;51.000;5.874;2023-12-07T08:28:42;33.78;;;31.67;;
11531;SDS011;5822;51.000;5.874;2023-12-07T08:31:08;33.28;;;31.17;;
11531;SDS011;5822;51.000;5.874;2023-12-07T08:33:34;32.55;;;30.55;;
11531;SDS011;5822;51.000;5.874;2023-12-07T08:36:00;31.80;;;29.80;;
11531;SDS011;5822;51.000;5.874;2023-12-07T08:38:26;36.00;;;33.85;;
11531;SDS011;5822;51.000;5.874;2023-12-07T08:40:52;38.05;;;35.75;;
11531;SDS011;5822;51.000;5.874;2023-12-07T08:43:21;38.17;;;35.78;;
11531;SDS011;5822;51.000;5.874;2023-12-07T08:45:48;35.67;;;33.47;;
11531;SDS011;5822;51.000;5.874;2023-12-07T08:48:15;33.33;;;31.23;;
11531;SDS011;5822;51.000;5.874;2023-12-07T08:50:40;31.30;;;29.30;;
11531;SDS011;5822;51.000;5.874;2023-12-07T08:53:06;31.63;;;29.63;;
11531;SDS011;5822;51.000;5.874;2023-12-07T08:55:32;30.80;;;28.80;;
11531;SDS011;5822;51.000;5.874;2023-12-07T08:57:57;29.65;;;27.75;;
11531;SDS011;5822;51.000;5.874;2023-12-07T09:00:24;31.15;;;29.15;;
11531;SDS011;5822;51.000;5.874;2023-12-07T09:02:50;32.75;;;30.65;;
11531;SDS011;5822;51.000;5.874;2023-12-07T09:05:16;34.63;;;32.43;;
11531;SDS011;5822;51.000;5.874;2023-12-07T09:07:42;35.30;;;33.20;;
11531;SDS011;5822;51.000;5.874;2023-12-07T09:10:08;34.28;;;32.17;;
11531;SDS011;5822;51.000;5.874;2023-12-07T09:12:35;34.45;;;32.33;;
11531;SDS011;5822;51.000;5.874;2023-12-07T09:15:01;33.63;;;31.52;;
11531;SDS011;5822;51.000;5.874;2023-12-07T09:17:28;33.95;;;31.90;;
11531;SDS011;5822;51.000;5.874;2023-12-07T09:19:54;34.30;;;32.20;;
11531;SDS011;5822;51.000;5.874;2023-12-07T09:22:19;33.63;;;31.53;;
11531;SDS011;5822;51.000;5.874;2023-12-07T09:24:45;32.17;;;30.17;;
11531;SDS011;5822;51.000;5.874;2023-12-07T09:27:14;30.80;;;28.80;;
11531;SDS011;5822;51.000;5.874;2023-12-07T09:29:39;30.27;;;28.38;;
11531;SDS011;5822;51.000;5.874;2023-12-07T09:32:06;30.45;;;28.55;;
11531;SDS011;5822;51.000;5.874;2023-12-07T09:34:32;31.55;;;29.58;;
11531;SDS011;5822;51.000;5.874;2023-12-07T09:37:07;31.75;;;29.75;;
11531;SDS011;5822;51.000;5.874;2023-12-07T09:39:36;32.17;;;30.17;;
11531;SDS011;5822;51.000;5.874;2023-12-07T09:42:02;32.90;;;30.90;;
11531;SDS011;5822;51.000;5.874;2023-12-07T09:44:28;32.67;;;30.67;;
11531;SDS011;5822;51.000;5.874;2023-12-07T09:46:54;31.90;;;29.90;;
11531;SDS011;5822;51.000;5.874;2023-12-07T09:49:20;30.67;;;28.77;;
11531;SDS011;5822;51.000;5.874;2023-12-07T09:51:46;30.70;;;28.77;;
11531;SDS011;5822;51.000;5.874;2023-12-07T09:54:13;29.80;;;27.90;;
11531;SDS011;5822;51.000;5.874;2023-12-07T09:56:39;28.95;;;27.15;;
11531;SDS011;5822;51.000;5.874;2023-12-07T09:59:05;29.38;;;27.58;;
11531;SDS011;5822;51.000;5.874;2023-12-07T10:01:32;29.98;;;28.08;;
11531;SDS011;5822;51.000;5.874;2023-12-07T10:06:46;28.88;;;27.05;;
11531;SDS011;5822;51.000;5.874;2023-12-07T10:09:12;28.40;;;26.60;;
11531;SDS011;5822;51.000;5.874;2023-12-07T10:11:38;28.63;;;26.83;;
11531;SDS011;5822;51.000;5.874;2023-12-07T10:14:08;27.20;;;25.48;;
11531;SDS011;5822;51.000;5.874;2023-12-07T10:16:34;27.10;;;25.40;;
11531;SDS011;5822;51.000;5.874;2023-12-07T10:19:16;29.35;;;27.45;;
11531;SDS011;5822;51.000;5.874;2023-12-07T10:21:53;28.35;;;26.55;;
11531;SDS011;5822;51.000;5.874;2023-12-07T10:24:19;27.80;;;26.00;;
11531;SDS011;5822;51.000;5.874;2023-12-07T10:26:47;30.50;;;28.50;;
11531;SDS011;5822;51.000;5.874;2023-12-07T10:29:14;28.58;;;26.75;;
11531;SDS011;5822;51.000;5.874;2023-12-07T10:31:42;28.35;;;26.55;;
11531;SDS011;5822;51.000;5.874;2023-12-07T10:34:09;27.73;;;25.98;;
11531;SDS011;5822;51.000;5.874;2023-12-07T10:36:34;28.50;;;26.70;;
11531;SDS011;5822;51.000;5.874;2023-12-07T10:39:00;26.58;;;24.90;;
11531;SDS011;5822;51.000;5.874;2023-12-07T10:41:26;28.45;;;26.65;;
11531;SDS011;5822;51.000;5.874;2023-12-07T10:43:53;27.23;;;25.53;;
11531;SDS011;5822;51.000;5.874;2023-12-07T10:46:25;26.55;;;24.85;;
11531;SDS011;5822;51.000;5.874;2023-12-07T10:48:56;26.45;;;24.75;;
11531;SDS011;5822;51.000;5.874;2023-12-07T10:51:30;27.47;;;25.77;;
11531;SDS011;5822;51.000;5.874;2023-12-07T10:54:01;27.47;;;25.77;;
11531;SDS011;5822;51.000;5.874;2023-12-07T10:56:29;27.27;;;25.57;;
11531;SDS011;5822;51.000;5.874;2023-12-07T10:59:16;28.58;;;26.77;;
11531;SDS011;5822;51.000;5.874;2023-12-07T11:01:42;28.52;;;26.73;;
11531;SDS011;5822;51.000;5.874;2023-12-07T11:04:11;28.30;;;26.50;;
11531;SDS011;5822;51.000;5.874;2023-12-07T11:06:37;27.05;;;25.35;;
11531;SDS011;5822;51.000;5.874;2023-12-07T11:09:08;27.08;;;25.38;;
11531;SDS011;5822;51.000;5.874;2023-12-07T11:11:43;26.55;;;24.95;;
11531;SDS011;5822;51.000;5.874;2023-12-07T11:14:16;25.52;;;23.92;;
11531;SDS011;5822;51.000;5.874;2023-12-07T11:16:45;26.10;;;24.42;;
11531;SDS011;5822;51.000;5.874;2023-12-07T11:21:57;24.70;;;23.10;;
11531;SDS011;5822;51.000;5.874;2023-12-07T11:24:24;24.70;;;23.13;;
11531;SDS011;5822;51.000;5.874;2023-12-07T11:26:59;24.35;;;22.85;;
11531;SDS011;5822;51.000;5.874;2023-12-07T11:29:25;24.52;;;23.00;;
11531;SDS011;5822;51.000;5.874;2023-12-07T11:31:56;24.75;;;23.25;;
11531;SDS011;5822;51.000;5.874;2023-12-07T11:34:35;25.60;;;24.10;;
11531;SDS011;5822;51.000;5.874;2023-12-07T11:37:01;26.45;;;24.85;;
11531;SDS011;5822;51.000;5.874;2023-12-07T11:39:28;24.98;;;23.48;;
11531;SDS011;5822;51.000;5.874;2023-12-07T11:41:54;24.40;;;22.90;;
11531;SDS011;5822;51.000;5.874;2023-12-07T11:44:24;24.88;;;23.38;;
11531;SDS011;5822;51.000;5.874;2023-12-07T11:46:58;25.05;;;23.45;;
11531;SDS011;5822;51.000;5.874;2023-12-07T11:49:33;25.20;;;23.70;;
11531;SDS011;5822;51.000;5.874;2023-12-07T11:52:12;25.58;;;23.95;;
11531;SDS011;5822;51.000;5.874;2023-12-07T11:54:45;26.00;;;24.40;;
11531;SDS011;5822;51.000;5.874;2023-12-07T11:57:15;25.50;;;23.92;;
11531;SDS011;5822;51.000;5.874;2023-12-07T11:59:42;25.13;;;23.63;;
11531;SDS011;5822;51.000;5.874;2023-12-07T12:02:10;23.37;;;21.97;;
11531;SDS011;5822;51.000;5.874;2023-12-07T12:04:36;23.43;;;21.93;;
11531;SDS011;5822;51.000;5.874;2023-12-07T12:07:03;23.02;;;21.63;;
11531;SDS011;5822;51.000;5.874;2023-12-07T12:09:29;23.45;;;21.95;;
11531;SDS011;5822;51.000;5.874;2023-12-07T12:11:54;24.48;;;22.98;;
11531;SDS011;5822;51.000;5.874;2023-12-07T12:14:25;23.25;;;21.85;;
11531;SDS011;5822;51.000;5.874;2023-12-07T12:16:52;23.55;;;22.15;;
11531;SDS011;5822;51.000;5.874;2023-12-07T12:19:18;22.90;;;21.50;;
11531;SDS011;5822;51.000;5.874;2023-12-07T12:21:44;23.98;;;22.48;;
11531;SDS011;5822;51.000;5.874;2023-12-07T12:24:11;23.90;;;22.40;;
11531;SDS011;5822;51.000;5.874;2023-12-07T12:26:39;22.40;;;21.08;;
11531;SDS011;5822;51.000;5.874;2023-12-07T12:29:06;21.95;;;20.63;;
11531;SDS011;5822;51.000;5.874;2023-12-07T12:31:33;21.90;;;20.60;;
11531;SDS011;5822;51.000;5.874;2023-12-07T12:34:03;22.30;;;21.00;;
11531;SDS011;5822;51.000;5.874;2023-12-07T12:36:32;21.95;;;20.63;;
11531;SDS011;5822;51.000;5.874;2023-12-07T12:38:58;22.35;;;20.95;;
11531;SDS011;5822;51.000;5.874;2023-12-07T12:41:24;24.23;;;22.73;;
11531;SDS011;5822;51.000;5.874;2023-12-07T12:43:52;23.70;;;22.20;;
11531;SDS011;5822;51.000;5.874;2023-12-07T12:46:18;23.20;;;21.80;;
11531;SDS011;5822;51.000;5.874;2023-12-07T12:48:56;23.58;;;22.10;;
11531;SDS011;5822;51.000;5.874;2023-12-07T12:51:24;23.00;;;21.50;;
11531;SDS011;5822;51.000;5.874;2023-12-07T12:53:56;24.38;;;22.88;;
11531;SDS011;5822;51.000;5.874;2023-12-07T12:56:24;24.20;;;22.70;;
11531;SDS011;5822;51.000;5.874;2023-12-07T12:58:51;23.38;;;21.98;;
11531;SDS011;5822;51.000;5.874;2023-12-07T13:01:18;25.13;;;23.63;;
11531;SDS011;5822;51.000;5.874;2023-12-07T13:03:45;25.77;;;24.17;;
11531;SDS011;5822;51.000;5.874;2023-12-07T13:06:12;25.77;;;24.27;;
11531;SDS011;5822;51.000;5.874;2023-12-07T13:08:39;25.55;;;24.05;;
11531;SDS011;5822;51.000;5.874;2023-12-07T13:11:05;27.17;;;25.58;;
11531;SDS011;5822;51.000;5.874;2023-12-07T13:13:31;27.13;;;25.52;;
11531;SDS011;5822;51.000;5.874;2023-12-07T13:15:57;26.88;;;25.27;;
11531;SDS011;5822;51.000;5.874;2023-12-07T13:18:22;26.73;;;25.13;;
11531;SDS011;5822;51.000;5.874;2023-12-07T13:20:48;26.50;;;24.90;;
11531;SDS011;5822;51.000;5.874;2023-12-07T13:23:14;26.77;;;25.17;;
11531;SDS011;5822;51.000;5.874;2023-12-07T13:25:39;25.90;;;24.40;;
11531;SDS011;5822;51.000;5.874;2023-12-07T13:28:06;23.30;;;21.90;;
11531;SDS011;5822;51.000;5.874;2023-12-07T13:30:33;26.20;;;24.70;;
11531;SDS011;5822;51.000;5.874;2023-12-07T13:33:00;21.92;;;20.60;;
11531;SDS011;5822;51.000;5.874;2023-12-07T13:35:27;24.17;;;22.67;;
11531;SDS011;5822;51.000;5.874;2023-12-07T13:37:53;23.13;;;21.73;;
11531;SDS011;5822;51.000;5.874;2023-12-07T13:40:18;21.50;;;20.20;;
11531;SDS011;5822;51.000;5.874;2023-12-07T13:42:44;23.40;;;21.90;;
11531;SDS011;5822;51.000;5.874;2023-12-07T13:45:10;23.83;;;22.43;;
11531;SDS011;5822;51.000;5.874;2023-12-07T13:47:36;24.85;;;23.35;;
11531;SDS011;5822;51.000;5.874;2023-12-07T13:50:03;24.23;;;22.73;;
11531;SDS011;5822;51.000;5.874;2023-12-07T13:52:30;23.83;;;22.35;;
11531;SDS011;5822;51.000;5.874;2023-12-07T13:54:56;24.33;;;22.83;;
11531;SDS011;5822;51.000;5.874;2023-12-07T13:57:23;24.33;;;22.83;;
11531;SDS011;5822;51.000;5.874;2023-12-07T13:59:52;23.45;;;22.05;;
11531;SDS011;5822;51.000;5.874;2023-12-07T14:02:18;23.43;;;22.03;;
11531;SDS011;5822;51.000;5.874;2023-12-07T14:04:44;23.50;;;22.10;;
11531;SDS011;5822;51.000;5.874;2023-12-07T14:07:11;22.00;;;20.70;;
11531;SDS011;5822;51.000;5.874;2023-12-07T14:09:39;21.30;;;20.00;;
11531;SDS011;5822;51.000;5.874;2023-12-07T14:12:07;22.52;;;21.13;;
11531;SDS011;5822;51.000;5.874;2023-12-07T14:14:34;21.73;;;20.40;;
11531;SDS011;5822;51.000;5.874;2023-12-07T14:17:00;23.20;;;21.80;;
11531;SDS011;5822;51.000;5.874;2023-12-07T14:19:25;23.50;;;22.10;;
11531;SDS011;5822;51.000;5.874;2023-12-07T14:21:51;26.17;;;24.67;;
11531;SDS011;5822;51.000;5.874;2023-12-07T14:24:18;26.02;;;24.52;;
11531;SDS011;5822;51.000;5.874;2023-12-07T14:26:44;23.63;;;22.23;;
11531;SDS011;5822;51.000;5.874;2023-12-07T14:29:09;24.60;;;23.20;;
11531;SDS011;5822;51.000;5.874;2023-12-07T14:31:40;25.48;;;24.08;;
11531;SDS011;5822;51.000;5.874;2023-12-07T14:34:06;27.00;;;25.50;;
11531;SDS011;5822;51.000;5.874;2023-12-07T14:36:32;24.93;;;23.43;;
11531;SDS011;5822;51.000;5.874;2023-12-07T14:38:57;24.73;;;23.27;;